Ray Brook, New York
Current Conditions -  °F | °C
As of 1:51 PM on Tuesday 21 Oct 2014 (Local Time) from KSLK Reporting Station
Light Rain Light Rain  
Wind Chill: 39°   Ceiling: 500
Heat Index: 44°   Visibility: 6mi
Dew Point: 42°   Wind: 9mph
Humidity: 93%   Direction: 80°E
Pressure: 29.92"   Gusts: NA
Location:  44.3°N, 74.09°W
Report Text: KSLK 211751Z AUTO 08008KT 6SM -RA BR BKN005 OVC038 07/06 A2992 RMK AO2 SLP143 P0004 60009 T00670056 10067 20044 50004
Loading
Personal Weather Stations






























Interactive Weather Map
Tropical Storm Tracking
New forecast layout! Learn more

10-Day Weather Forecast

Advertisements
Track Severe Weather on mobile